Mary M — WDE8984 — position and weather

sailwx.info

Track history (hours):
 
Tides and Currents Weather Stations Pressure Air Temp Water Temp Dewpoint Dewpoint Depression Visibility Wind Speed Wind Dir Waves Ship Positions

Mary M

Owner: F/V OCEAN VIEW INC, MANAHAWKIN, NJ. More information available from US FCC via Universal Licensing System and Coast Guard Vessel Documentation Center.

Last reported at 2017-Oct-04 08:41 UTC. Time now 2017-Oct-20 14:15 UTC.
Position N 40°01' W 073°36'.
Warning: this ship's position is 16 days out of date.

Type: Other ship. MMSI: 367411960.

Date/timePositionNaut miles runAvg speedWind from/ knotsBaromVisibWave heightAir tempDewpointWater temp
2017-Oct-04 08:41N 40°01' W 073°36'24 3.9
2017-Oct-04 02:28N 39°43' W 073°56'4 8.6
2017-Oct-04 01:58N 39°39' W 074°00'4 8.5
2017-Oct-04 01:30N 39°37' W 074°04'3 0.3
2017-Oct-03 15:53N 39°34' W 074°07'5 9.4
2017-Oct-03 15:21N 39°38' W 074°02'3 9.5
2017-Oct-03 15:00N 39°40' W 073°59'2 0.1
2017-Oct-02 11:45N 39°39' W 073°59'3 8.5
2017-Oct-02 11:26N 39°37' W 074°01'  
2017-Sep-26 04:42N 39°22' W 074°26'0 0.0
2017-Sep-26 04:31N 39°22' W 074°26'0 0.0
2017-Sep-26 04:01N 39°22' W 074°26'0 0.0
2017-Sep-26 03:19N 39°22' W 074°26'0 0.0
2017-Sep-26 02:58N 39°22' W 074°26'0 0.0
2017-Sep-26 02:25N 39°22' W 074°26'0 0.0
2017-Sep-25 13:27N 39°22' W 074°26'0 0.0
2017-Sep-25 10:45N 39°22' W 074°26'1 4.9
2017-Sep-25 10:27N 39°22' W 074°24'  
Track history (hours):
 
Tides and Currents Weather Stations Pressure Air Temp Water Temp Dewpoint Dewpoint Depression Visibility Wind Speed Wind Dir Waves Ship Positions

Mary M

Owner: F/V OCEAN VIEW INC, MANAHAWKIN, NJ. More information available from US FCC via Universal Licensing System and Coast Guard Vessel Documentation Center.

Last reported at 2017-Oct-04 08:41 UTC. Time now 2017-Oct-20 14:15 UTC.
Position N 40°01' W 073°36'.
Warning: this ship's position is 16 days out of date.

Type: Other ship. MMSI: 367411960.

Date/timePositionNaut miles runAvg speedWind from/ knotsBaromVisibWave heightAir tempDewpointWater temp
2017-Oct-04 08:41N 40°01' W 073°36'24 3.9
2017-Oct-04 02:28N 39°43' W 073°56'4 8.6
2017-Oct-04 01:58N 39°39' W 074°00'4 8.5
2017-Oct-04 01:30N 39°37' W 074°04'3 0.3
2017-Oct-03 15:53N 39°34' W 074°07'5 9.4
2017-Oct-03 15:21N 39°38' W 074°02'3 9.5
2017-Oct-03 15:00N 39°40' W 073°59'2 0.1
2017-Oct-02 11:45N 39°39' W 073°59'3 8.5
2017-Oct-02 11:26N 39°37' W 074°01'  
2017-Sep-26 04:42N 39°22' W 074°26'0 0.0
2017-Sep-26 04:31N 39°22' W 074°26'0 0.0
2017-Sep-26 04:01N 39°22' W 074°26'0 0.0
2017-Sep-26 03:19N 39°22' W 074°26'0 0.0
2017-Sep-26 02:58N 39°22' W 074°26'0 0.0
2017-Sep-26 02:25N 39°22' W 074°26'0 0.0
2017-Sep-25 13:27N 39°22' W 074°26'0 0.0
2017-Sep-25 10:45N 39°22' W 074°26'1 4.9
2017-Sep-25 10:27N 39°22' W 074°24'  

Dump ship's entire track history